METAR Data
IDs: Format: Raw Decoded Include TAF

Data at: 1340 UTC 14 Dec 2019

KFYV 141253Z 34004KT 10SM CLR 02/01 A2985 RMK AO2 SLP111 T00220006
KFYV 141153Z 31005KT 10SM CLR 03/02 A2984 RMK AO2 SLP107 T00330017 10083 20017 53018
KFYV 141053Z AUTO 31008KT 10SM CLR 06/03 A2981 RMK AO2 SLP096 T00560028
KFYV 140953Z AUTO 28010KT 10SM CLR 07/04 A2979 RMK AO2 SLP088 T00720044
KFYV 140853Z AUTO 24008KT 10SM CLR 08/04 A2978 RMK AO2 SLP083 T00780044 58007
KFYV 140753Z AUTO 19006KT 10SM BKN085 OVC110 05/03 A2979 RMK AO2 SLP088 T00500033
KFYV 140653Z AUTO 19005KT 10SM CLR 03/02 A2981 RMK AO2 SLP093 T00280022
KFYV 140553Z AUTO 21004KT 10SM FEW120 02/01 A2981 RMK AO2 SLP094 T00220011 10056 20017 401330017 58012
KFYV 140453Z AUTO 20007KT 10SM FEW110 04/03 A2982 RMK AO2 SLP100 T00440028
KFYV 140353Z AUTO 18005KT 10SM SCT110 03/02 A2986 RMK AO2 SLP114 T00280017
KFYV 140253Z 22006KT 10SM OVC110 04/02 A2984 RMK AO2 SLP108 T00390022 50006
KFYV 140153Z 19004KT 10SM CLR 03/02 A2985 RMK AO2 SLP114 T00330017
KFYV 140053Z 00000KT 10SM CLR 04/02 A2984 RMK AO2 SLP109 T00440022
KFYV 132353Z 00000KT 10SM CLR 05/02 A2982 RMK AO2 SLP103 T00500022 10133 20050 53000
KFYV 132253Z 28003KT 10SM CLR 08/03 A2981 RMK AO2 SLP096 T00830033
KFYV 132153Z 21003KT 10SM CLR 12/04 A2981 RMK AO2 SLP096 T01220039
KFYV 132053Z 31006KT 10SM CLR 13/04 A2982 RMK AO2 SLP098 T01280039 56020
KFYV 131953Z VRB05KT 10SM CLR 13/03 A2983 RMK AO2 SLP100 T01280033
KFYV 131853Z VRB03KT 10SM CLR 12/03 A2985 RMK AO2 SLP107 T01170033
KFYV 131753Z 19003KT 10SM CLR 11/03 A2989 RMK AO2 SLP120 60000 T01060028 10106 20039 58018
KFYV 131553Z 00000KT 10SM SCT043 07/01 A2995 RMK AO2 SLP143 T00720006
KFYV 131453Z 00000KT 10SM OVC044 06/01 A2994 RMK AO2 SLP144 60000 T00560006 58003
KFYV 131353Z 00000KT 10SM FEW043 BKN080 OVC095 04/00 A2995 RMK AO2 RAB08E20 SLP148 P0000 T00390000
KFYV 131253Z 00000KT 10SM OVC043 04/M01 A2995 RMK AO2 SLP147 T00441006
KFYV 131153Z 00000KT 10SM BKN045 04/M01 A2995 RMK AO2 SLP145 T00391006 10067 20033 56012
KFYV 131053Z AUTO 00000KT 10SM CLR 04/M01 A2996 RMK AO2 SLP148 T00391011
KFYV 130953Z AUTO 19003KT 10SM FEW044 05/M02 A2997 RMK AO2 SLP151 T00501017
KFYV 130853Z AUTO 20005KT 10SM OVC045 06/M02 A2999 RMK AO2 SLP155 T00561017 56020
KFYV 130753Z AUTO 20006KT 10SM BKN045 06/M02 A3000 RMK AO2 SLP160 T00561017
KFYV 130653Z AUTO 20004KT 10SM OVC049 06/M02 A3002 RMK AO2 SLP167 T00611022
KFYV 130553Z AUTO 21005KT 10SM BKN060 06/M02 A3005 RMK AO2 SLP176 T00611022 10072 20006 401220006 58009
KFYV 130453Z AUTO 19005KT 10SM OVC060 07/M02 A3008 RMK AO2 SLP186 T00671022
KFYV 130353Z AUTO 00000KT 10SM OVC065 03/M01 A3007 RMK AO2 SLP187 T00281011
KFYV 130253Z 00000KT 10SM OVC065 01/M02 A3008 RMK AO2 SLP190 T00061022 58002
KFYV 130153Z 18003KT 10SM CLR 02/M03 A3008 RMK AO2 SLP190 T00171028